Airfield :







YOU CAN JOIN US ON...

 
LOGIN :

Register | Disclaimer

   EN    FR    IT 

 









Legend :    VFR   Marginal VFR   IFR   Intensive IFR   Very Intensive IFR
Visi :
Ceiling :
>= 8 km
>= 3000ft
5 to 8 km
1000 to 3000 ft
1500m to 5 km
500 to 1000 ft
800 to 1500m
200 to 500 ft
< 800m
< 200 ft
Symbols :   Thunderstorms  Fog  Heavy snow  Heavy precipitations  Wind > 20 kt






- Airport Elevation : 108 ft
- IATA code : YAY


CYAY - St Anthony

CURRENT METAR :
  • 010428Z AUTO 03010KT 3SM -RA BR OVC004 00/00 A3014 RMK SLP210

EXPIRED METARs :
  • 010423Z AUTO 03011KT 2SM -RA BR OVC004 00/00 A3014 RMK SLP210
  • 010411Z AUTO 03009KT 1SM -RA BR VV004 00/00 A3014 RMK SLP211
  • 010400Z AUTO 02010KT 1SM -RA BR VV003 00/00 A3014 RMK SLP210
  • 010340Z AUTO 02011KT 1SM -RA BR VV003 00/00 A3014 RMK SLP210
  • 010300Z AUTO 02013KT 1 1/2SM -RA BR OVC004 00/M00 A3014 RMK SLP210
  • 010251Z AUTO 02012G18KT 2 1/2SM BR BKN004 OVC012 00/M00 A3015 RMK SLP212
  • 010225Z AUTO 03012G17KT 3SM -RA BR BKN004 OVC012 00/M00 A3014 RMK SLP210
  • 010200Z AUTO 03016G21KT 4SM BR BKN004 OVC016 00/M00 A3014 RMK SLP211

TAF AMD TAF CYAY
Valid from the 01 at 04:00 until the 01 at 14:00 UTC


010416Z 0104/0114 03012KT 1SM -RA BR OVC003
TEMPO 0104/0114 3SM -DZ BR OVC006
BECMG 0107/0109 10012KT RMK FCST BASED ON AUTO OBS. NXT FCST BY 010800Z



MET'MAP, your aeronautical weather chart ! - Copyright ORBIFLY December 2007 - Disclaimer

ORBIFLY MET'MAP TEAM :

Programming & Development : Alexandra Zaïnal
Concept & original design : Baudouin d'Aumeries
Assistance for programming : Marc-Olivier Méhu
Technical & hardware support : Manuel Goepfert

Contact : metmap@orbifly.com




SOURCES & CREDITS :

   NOAA